Accueil
METAR-TAF:

METAR-TAF

Aéroports :

Aéroport de Sherbrooke

Sherbrooke, Québec, Canada

latitude: 45-24N, longitude: 071-53W, altitude: 170 m

Observation

Le bulletin a été fait il y a 1 heure et 8 minutes, à 16:00 UTC
Vent calme
Température -21°C
Humidité 58%
Pression 1028 hPa
Visibilité: 14.5 km
Quelques nuages à une hauteur de 24000 ft

METAR: CYSC 221600Z AUTO 00000KT 9SM FEW240 M21/M27 A3036 RMK PRESFR SLP312

Heure: 12:08 (17:08 UTC)

Prévision

Le bulletin a été fait il y a 6 heures et 28 minutes, à 10:40 UTC
Prévision valable du 22 à 11 UTC au 22 à 23 UTC
Vent 3 kt de direction variable
Visibilité: 10 km
Ciel clair
A partir de 22 à 2100 UTC
Vent 5 kt de sud/sud-est
Visibilité: 10 km
Nuages fragmentés à une hauteur de 20000 ft

TAF: CYSC 221040Z 2211/2223 VRB03KT P6SM SKC FM222100 15005KT P6SM BKN200 RMK FCST BASED ON AUTO OBS. NXT FCST BY 221800Z

Observations et prévisions météorologiques de plus de 4000 aéroports (messages METAR et TAF).

Les stations disponibles sont représentées par des disques jaunes et rouges sur la carte.

Passer la souris dessus pour voir le nom de la station.

Cliquer dessus pour voir les observations et prévisions météorologiques.

Pour changer de carte: cliquez sur les boutons verts avec une croix noire pour zoomer, sur le bouton vert avec un tiret pour effectuer un zoom arrière, ou sur les flèches vertes pour les cartes adjacentes.


METAR-TAF: